createdAt,value
2018-09-19T00:01:12.296Z,20.20
2018-09-19T00:06:09.240Z,20.20
2018-09-19T00:08:37.716Z,20.20
2018-09-19T00:11:06.410Z,20.20
2018-09-19T00:13:34.859Z,20.20
2018-09-19T00:16:03.362Z,20.10
2018-09-19T00:18:36.892Z,20.10
2018-09-19T00:21:05.476Z,20.20
2018-09-19T00:23:33.873Z,20.20
2018-09-19T00:28:30.622Z,20.20
2018-09-19T00:30:59.138Z,20.10
2018-09-19T00:33:27.589Z,20.20
2018-09-19T00:35:56.086Z,20.20
2018-09-19T00:38:24.801Z,20.20
2018-09-19T00:40:53.244Z,20.20
2018-09-19T00:43:21.748Z,20.20
2018-09-19T00:45:50.666Z,20.20
2018-09-19T00:48:19.085Z,20.20
2018-09-19T00:50:47.587Z,20.20
2018-09-19T00:53:16.091Z,20.10
2018-09-19T00:55:44.531Z,20.20
2018-09-19T00:58:13.016Z,20.20
2018-09-19T01:00:41.532Z,20.20
2018-09-19T01:03:09.984Z,20.10
2018-09-19T01:05:38.485Z,20.10
2018-09-19T01:08:06.925Z,20.10
2018-09-19T01:10:35.437Z,20.20
2018-09-19T01:13:03.886Z,20.10
2018-09-19T01:15:32.377Z,20.20
2018-09-19T01:18:00.846Z,20.20
2018-09-19T01:20:29.570Z,20.20
2018-09-19T01:22:58.047Z,20.10
2018-09-19T01:25:30.407Z,20.20
2018-09-19T01:27:58.867Z,20.20
2018-09-19T01:32:55.596Z,20.10
2018-09-19T01:35:24.438Z,20.10
2018-09-19T01:37:53.001Z,20.10
2018-09-19T01:40:21.479Z,20.10
2018-09-19T01:42:50.028Z,20.10
2018-09-19T01:45:18.558Z,20.10
2018-09-19T01:47:47.124Z,20.10
2018-09-19T01:50:15.601Z,20.10
2018-09-19T01:52:44.084Z,20.10
2018-09-19T01:57:40.696Z,20.10
2018-09-19T02:00:09.114Z,20.10
2018-09-19T02:02:37.604Z,20.10
2018-09-19T02:05:06.084Z,20.10
2018-09-19T02:07:34.588Z,20.10
2018-09-19T02:10:03.225Z,20.10
2018-09-19T02:12:31.776Z,20.10
2018-09-19T02:15:00.220Z,20.10
2018-09-19T02:17:28.926Z,20.10
2018-09-19T02:19:57.344Z,20.10
2018-09-19T02:22:26.032Z,20.10
2018-09-19T02:24:54.516Z,20.10
2018-09-19T02:27:23.011Z,20.10
2018-09-19T02:29:51.524Z,20.10
2018-09-19T02:32:19.995Z,20.10
2018-09-19T02:34:48.440Z,20.10
2018-09-19T02:37:16.933Z,20.10
2018-09-19T02:39:45.422Z,20.10
2018-09-19T02:42:13.906Z,20.10
2018-09-19T02:44:42.389Z,20.10
2018-09-19T02:47:10.886Z,20.10
2018-09-19T02:49:39.397Z,20.10
2018-09-19T02:52:07.876Z,20.10
2018-09-19T02:54:36.349Z,20.10
2018-09-19T02:57:04.761Z,20.10
2018-09-19T02:59:33.377Z,20.10
2018-09-19T03:02:01.921Z,20.10
2018-09-19T03:04:30.482Z,20.10
2018-09-19T03:06:58.888Z,20.10
2018-09-19T03:09:27.562Z,20.10
2018-09-19T03:11:56.093Z,20.10
2018-09-19T03:14:24.553Z,20.10
2018-09-19T03:16:53.101Z,20.10
2018-09-19T03:19:21.692Z,20.10
2018-09-19T03:21:50.191Z,20.10
2018-09-19T03:24:18.692Z,20.10
2018-09-19T03:26:47.179Z,20.10
2018-09-19T03:29:15.637Z,20.10
2018-09-19T03:31:44.145Z,20.10
2018-09-19T03:34:12.650Z,20.10
2018-09-19T03:36:41.097Z,20.10
2018-09-19T03:39:10.549Z,20.10
2018-09-19T03:41:39.730Z,20.10
2018-09-19T03:44:08.537Z,20.10
2018-09-19T03:46:37.820Z,20.10
2018-09-19T03:49:06.832Z,20.10
2018-09-19T03:51:35.232Z,20.10
2018-09-19T03:54:06.750Z,20.10
2018-09-19T03:56:35.259Z,20.10
2018-09-19T03:59:03.755Z,20.10
2018-09-19T04:01:32.229Z,20.10
2018-09-19T04:04:00.743Z,20.10
2018-09-19T04:06:29.264Z,20.10
2018-09-19T04:08:57.677Z,20.10
2018-09-19T04:11:26.329Z,20.10
2018-09-19T04:13:54.807Z,20.10
2018-09-19T04:16:23.321Z,20.10
2018-09-19T04:18:51.775Z,20.10
2018-09-19T04:21:20.275Z,20.10
2018-09-19T04:23:48.779Z,20.10
2018-09-19T04:26:17.619Z,20.10
2018-09-19T04:28:46.120Z,20.10
2018-09-19T04:31:14.609Z,20.10
2018-09-19T04:33:43.244Z,20.10
2018-09-19T04:36:11.816Z,20.10
2018-09-19T04:38:40.261Z,20.10
2018-09-19T04:41:08.793Z,20.10
2018-09-19T04:43:37.185Z,20.10
2018-09-19T04:46:05.690Z,20.00
2018-09-19T04:48:34.153Z,20.10
2018-09-19T04:51:02.649Z,20.00
2018-09-19T04:53:31.120Z,20.10
2018-09-19T04:55:59.613Z,20.00
2018-09-19T04:58:28.124Z,20.10
2018-09-19T05:00:56.748Z,20.00
2018-09-19T05:03:25.240Z,20.00
2018-09-19T05:05:53.834Z,20.00
2018-09-19T05:08:22.268Z,20.00
2018-09-19T05:10:50.688Z,20.00
2018-09-19T05:13:19.180Z,20.00
2018-09-19T05:15:47.823Z,20.00
2018-09-19T05:18:16.368Z,20.00
2018-09-19T05:20:44.795Z,20.00
2018-09-19T05:23:13.306Z,20.00
2018-09-19T05:25:41.803Z,20.00
2018-09-19T05:28:10.265Z,20.00
2018-09-19T05:30:38.764Z,20.00
2018-09-19T05:33:07.308Z,20.00
2018-09-19T05:35:35.688Z,20.00
2018-09-19T05:38:04.187Z,20.00
2018-09-19T05:40:32.690Z,20.00
2018-09-19T05:43:01.136Z,20.00
2018-09-19T05:45:29.603Z,20.00
2018-09-19T05:50:26.152Z,20.00
2018-09-19T05:52:54.651Z,20.00
2018-09-19T05:55:23.147Z,20.00
2018-09-19T05:57:51.652Z,20.00
2018-09-19T06:00:20.131Z,20.00
2018-09-19T06:02:48.595Z,20.00
2018-09-19T06:05:17.109Z,20.00
2018-09-19T06:07:45.633Z,20.00
2018-09-19T06:10:14.297Z,20.00
2018-09-19T06:12:42.719Z,20.00
2018-09-19T06:15:11.230Z,20.00
2018-09-19T06:17:39.672Z,20.00
2018-09-19T06:20:08.136Z,20.00
2018-09-19T06:22:36.681Z,20.00
2018-09-19T06:25:05.102Z,20.00
2018-09-19T06:27:33.601Z,20.00
2018-09-19T06:30:02.132Z,20.00
2018-09-19T06:32:30.534Z,20.00
2018-09-19T06:34:59.203Z,20.00
2018-09-19T06:37:27.744Z,20.00
2018-09-19T06:39:56.228Z,20.00
2018-09-19T06:42:24.840Z,20.00
2018-09-19T06:44:53.362Z,20.00
2018-09-19T06:47:21.805Z,20.00
2018-09-19T06:49:50.298Z,20.00
2018-09-19T06:52:18.825Z,20.00
2018-09-19T06:54:47.268Z,20.00
2018-09-19T06:57:15.808Z,20.00
2018-09-19T06:59:44.300Z,20.00
2018-09-19T07:02:12.732Z,20.00
2018-09-19T07:07:09.269Z,20.00
2018-09-19T07:09:38.312Z,20.00
2018-09-19T07:12:07.037Z,20.10
2018-09-19T07:14:35.511Z,20.00
2018-09-19T07:17:04.000Z,20.10
2018-09-19T07:19:32.481Z,20.10
2018-09-19T07:22:01.016Z,20.10
2018-09-19T07:24:29.452Z,20.10
2018-09-19T07:26:57.980Z,20.10
2018-09-19T07:29:26.389Z,20.10
2018-09-19T07:31:54.937Z,20.10
2018-09-19T07:34:23.407Z,20.10
2018-09-19T07:36:52.081Z,20.10
2018-09-19T07:39:20.528Z,20.10
2018-09-19T07:41:49.055Z,20.10
2018-09-19T07:44:17.477Z,20.10
2018-09-19T07:46:46.079Z,20.10
2018-09-19T07:49:14.513Z,20.10
2018-09-19T07:51:42.939Z,20.10
2018-09-19T07:54:11.431Z,20.10
2018-09-19T07:56:39.872Z,20.10
2018-09-19T07:59:08.382Z,20.10
2018-09-19T08:01:36.839Z,20.10
2018-09-19T08:04:05.392Z,20.10
2018-09-19T08:09:02.391Z,20.10
2018-09-19T08:11:30.751Z,20.10
2018-09-19T08:13:59.244Z,20.10
2018-09-19T08:16:27.758Z,20.10
2018-09-19T08:18:56.211Z,20.10
2018-09-19T08:21:24.673Z,20.10
2018-09-19T08:23:53.286Z,20.10
2018-09-19T08:26:21.885Z,20.10
2018-09-19T08:28:50.360Z,20.10
2018-09-19T08:31:18.803Z,20.10
2018-09-19T08:33:47.348Z,20.10
2018-09-19T08:36:15.755Z,20.20
2018-09-19T08:38:44.335Z,20.20
2018-09-19T08:41:12.940Z,20.20
2018-09-19T08:43:41.479Z,20.20
2018-09-19T08:46:09.929Z,20.10
2018-09-19T08:51:06.513Z,20.20
2018-09-19T08:53:34.944Z,20.20
2018-09-19T08:56:03.423Z,20.20
2018-09-19T08:58:31.945Z,20.20
2018-09-19T09:01:00.356Z,20.20
2018-09-19T09:03:28.845Z,20.20
2018-09-19T09:05:57.344Z,20.20
2018-09-19T09:08:25.849Z,20.20
2018-09-19T09:10:54.297Z,20.20
2018-09-19T09:13:22.752Z,20.20
2018-09-19T09:15:51.292Z,20.20
2018-09-19T09:18:19.755Z,20.20
2018-09-19T09:20:48.419Z,20.20
2018-09-19T09:23:16.878Z,20.20
2018-09-19T09:25:45.382Z,20.20
2018-09-19T09:30:41.948Z,20.20
2018-09-19T09:33:10.394Z,20.20
2018-09-19T09:35:38.888Z,20.20
2018-09-19T09:38:07.366Z,20.20
2018-09-19T09:40:35.909Z,20.20
2018-09-19T09:43:04.327Z,20.20
2018-09-19T09:45:32.812Z,20.20
2018-09-19T09:48:01.284Z,20.20
2018-09-19T09:50:29.822Z,20.20
2018-09-19T09:53:00.920Z,20.20
2018-09-19T09:55:29.405Z,20.20
2018-09-19T09:57:57.904Z,20.20
2018-09-19T10:00:31.796Z,20.30
2018-09-19T10:03:00.361Z,20.30
2018-09-19T10:05:28.828Z,20.30
2018-09-19T10:07:57.336Z,20.30
2018-09-19T10:10:25.788Z,20.30
2018-09-19T10:12:54.466Z,20.30
2018-09-19T10:15:22.970Z,20.30
2018-09-19T10:17:51.533Z,20.30
2018-09-19T10:20:20.296Z,20.30
2018-09-19T10:22:55.568Z,20.30
2018-09-19T10:25:24.207Z,20.30
2018-09-19T10:27:52.743Z,20.30
2018-09-19T10:30:21.382Z,20.30
2018-09-19T10:32:50.091Z,20.30
2018-09-19T10:35:18.647Z,20.30
2018-09-19T10:37:47.260Z,20.30
2018-09-19T10:40:15.821Z,20.30
2018-09-19T10:42:44.664Z,20.30
2018-09-19T10:45:13.111Z,20.30
2018-09-19T10:47:41.608Z,20.30
2018-09-19T10:52:38.404Z,20.30
2018-09-19T10:55:06.868Z,20.30
2018-09-19T10:57:35.322Z,20.30
2018-09-19T11:00:03.890Z,20.30
2018-09-19T11:02:32.290Z,20.30
2018-09-19T11:05:00.744Z,20.30
2018-09-19T11:07:29.259Z,20.30
2018-09-19T11:09:57.765Z,20.30
2018-09-19T11:12:26.280Z,20.30
2018-09-19T11:14:54.708Z,20.30
2018-09-19T11:17:23.152Z,20.30
2018-09-19T11:19:51.721Z,20.30
2018-09-19T11:22:20.120Z,20.30
2018-09-19T11:24:48.816Z,20.40
2018-09-19T11:27:17.273Z,20.30
2018-09-19T11:29:45.809Z,20.40
2018-09-19T11:32:14.237Z,20.40
2018-09-19T11:34:42.951Z,20.40
2018-09-19T11:37:11.405Z,20.40
2018-09-19T11:39:39.896Z,20.40
2018-09-19T11:42:08.412Z,20.40
2018-09-19T11:44:36.892Z,20.40
2018-09-19T11:47:05.430Z,20.40
2018-09-19T11:49:33.952Z,20.40
2018-09-19T11:52:02.550Z,20.40
2018-09-19T11:54:30.992Z,20.40
2018-09-19T11:56:59.615Z,20.40
2018-09-19T11:59:28.192Z,20.40
2018-09-19T12:01:56.681Z,20.40
2018-09-19T12:04:25.119Z,20.40
2018-09-19T12:06:53.633Z,20.40
2018-09-19T12:09:22.080Z,20.40
2018-09-19T12:11:50.524Z,20.40
2018-09-19T12:14:19.030Z,20.40
2018-09-19T12:16:47.524Z,20.40
2018-09-19T12:19:16.001Z,20.40
2018-09-19T12:21:48.801Z,20.40
2018-09-19T12:24:17.307Z,20.40
2018-09-19T12:26:45.716Z,20.40
2018-09-19T12:29:14.248Z,20.40
2018-09-19T12:31:42.750Z,20.40
2018-09-19T12:34:11.148Z,20.40
2018-09-19T12:36:39.661Z,20.40
2018-09-19T12:39:09.321Z,20.40
2018-09-19T12:44:10.848Z,20.50
2018-09-19T12:46:39.335Z,20.50
2018-09-19T12:49:07.977Z,20.50
2018-09-19T12:51:36.657Z,20.50
2018-09-19T12:54:05.439Z,20.50
2018-09-19T12:56:33.851Z,20.50
2018-09-19T12:59:02.338Z,20.50
2018-09-19T13:01:30.796Z,20.50
2018-09-19T13:03:59.272Z,20.50
2018-09-19T13:06:27.791Z,20.50
2018-09-19T13:08:56.233Z,20.50
2018-09-19T13:11:24.722Z,20.50
2018-09-19T13:13:53.206Z,20.50
2018-09-19T13:16:21.692Z,20.50
2018-09-19T13:18:50.151Z,20.50
2018-09-19T13:21:18.644Z,20.50
2018-09-19T13:23:47.124Z,20.50
2018-09-19T13:26:15.593Z,20.50
2018-09-19T13:28:44.433Z,20.50
2018-09-19T13:31:13.022Z,20.50
2018-09-19T13:36:09.725Z,20.50
2018-09-19T13:38:38.232Z,20.50
2018-09-19T13:41:06.911Z,20.50
2018-09-19T13:43:35.382Z,20.50
2018-09-19T13:46:03.920Z,20.50
2018-09-19T13:48:32.416Z,20.50
2018-09-19T13:51:06.929Z,20.50
2018-09-19T13:53:35.461Z,20.60
2018-09-19T13:56:03.940Z,20.60
2018-09-19T13:58:32.415Z,20.60
2018-09-19T14:01:00.894Z,20.60
2018-09-19T14:03:29.410Z,20.60
2018-09-19T14:05:57.892Z,20.60
2018-09-19T14:08:26.400Z,20.60
2018-09-19T14:10:54.807Z,20.60
2018-09-19T14:13:23.337Z,20.60
2018-09-19T14:15:51.820Z,20.60
2018-09-19T14:18:20.239Z,20.60
2018-09-19T14:20:48.732Z,20.60
2018-09-19T14:23:17.258Z,20.60
2018-09-19T14:25:45.663Z,20.60
2018-09-19T14:33:10.980Z,20.60
2018-09-19T14:35:39.714Z,20.60
2018-09-19T14:38:08.104Z,20.60
2018-09-19T14:40:36.676Z,20.60
2018-09-19T14:43:05.264Z,20.60
2018-09-19T14:45:33.843Z,20.60
2018-09-19T14:48:02.628Z,20.60
2018-09-19T14:50:31.141Z,20.60
2018-09-19T14:52:59.596Z,20.60
2018-09-19T14:55:28.080Z,20.60
2018-09-19T14:57:56.563Z,20.60
2018-09-19T15:00:25.069Z,20.60
2018-09-19T15:02:53.760Z,20.60
2018-09-19T15:05:22.236Z,20.70
2018-09-19T15:07:50.760Z,20.60
2018-09-19T15:10:19.186Z,20.70
2018-09-19T15:12:47.630Z,20.60
2018-09-19T15:15:16.318Z,20.70
2018-09-19T15:17:45.020Z,20.70
2018-09-19T15:20:13.488Z,20.70
2018-09-19T15:22:41.979Z,20.70
2018-09-19T15:25:10.469Z,20.70
2018-09-19T15:27:38.891Z,20.70
2018-09-19T15:30:07.412Z,20.70
2018-09-19T15:32:35.969Z,20.70
2018-09-19T15:35:04.588Z,20.70
2018-09-19T15:37:33.041Z,20.70
2018-09-19T15:40:01.553Z,20.70
2018-09-19T15:42:30.138Z,20.70
2018-09-19T15:44:58.724Z,20.70
2018-09-19T15:47:27.227Z,20.70
2018-09-19T15:49:55.872Z,20.70
2018-09-19T15:52:24.377Z,20.70
2018-09-19T15:54:52.858Z,20.70
2018-09-19T15:57:21.304Z,20.70
2018-09-19T15:59:49.800Z,20.70
2018-09-19T16:02:18.288Z,20.70
2018-09-19T16:04:46.784Z,20.70
2018-09-19T16:07:15.294Z,20.70
2018-09-19T16:09:43.736Z,20.70
2018-09-19T16:12:12.188Z,20.70
2018-09-19T16:14:40.820Z,20.70
2018-09-19T16:17:09.393Z,20.70
2018-09-19T16:19:37.981Z,20.70
2018-09-19T16:22:06.578Z,20.70
2018-09-19T16:24:35.148Z,20.70
2018-09-19T16:27:03.730Z,20.70
2018-09-19T16:29:32.227Z,20.70
2018-09-19T16:32:00.811Z,20.80
2018-09-19T16:34:29.454Z,20.80
2018-09-19T16:36:58.056Z,20.80
2018-09-19T16:39:26.492Z,20.80
2018-09-19T16:41:54.979Z,20.80
2018-09-19T16:44:23.493Z,20.80
2018-09-19T16:46:51.936Z,20.80
2018-09-19T16:49:20.452Z,20.80
2018-09-19T16:51:48.926Z,20.70
2018-09-19T16:54:17.426Z,20.80
2018-09-19T16:56:45.899Z,20.80
2018-09-19T16:59:14.312Z,20.80
2018-09-19T17:01:42.848Z,20.80
2018-09-19T17:04:11.264Z,20.70
2018-09-19T17:06:39.745Z,20.80
2018-09-19T17:09:08.835Z,20.80
2018-09-19T17:11:37.350Z,20.80
2018-09-19T17:14:05.857Z,20.80
2018-09-19T17:16:34.338Z,20.70
2018-09-19T17:19:02.771Z,20.80
2018-09-19T17:21:31.237Z,20.80
2018-09-19T17:23:59.788Z,20.80
2018-09-19T17:26:28.251Z,20.80
2018-09-19T17:28:56.772Z,20.80
2018-09-19T17:31:25.145Z,20.80
2018-09-19T17:33:53.645Z,20.80
2018-09-19T17:36:22.153Z,20.80
2018-09-19T17:38:50.625Z,20.80
2018-09-19T17:41:19.078Z,20.80
2018-09-19T17:43:47.764Z,20.70
2018-09-19T17:46:16.303Z,20.80
2018-09-19T17:48:44.753Z,20.80
2018-09-19T17:51:24.500Z,20.80
2018-09-19T17:53:52.997Z,20.80
2018-09-19T17:56:22.448Z,20.80
2018-09-19T17:58:51.066Z,20.80
2018-09-19T18:01:19.658Z,20.80
2018-09-19T18:03:54.454Z,20.80
2018-09-19T18:06:22.931Z,20.80
2018-09-19T18:08:51.446Z,20.80
2018-09-19T18:11:20.065Z,20.80
2018-09-19T18:13:48.572Z,20.80
2018-09-19T18:16:17.076Z,20.80
2018-09-19T18:18:45.536Z,20.70
2018-09-19T18:21:14.060Z,20.70
2018-09-19T18:23:42.498Z,20.70
2018-09-19T18:26:11.020Z,20.80
2018-09-19T18:28:39.504Z,20.80
2018-09-19T18:31:08.155Z,20.70
2018-09-19T18:33:36.636Z,20.70
2018-09-19T18:36:05.195Z,20.70
2018-09-19T18:38:33.676Z,20.70
2018-09-19T18:41:02.261Z,20.70
2018-09-19T18:43:30.770Z,20.70
2018-09-19T18:45:59.243Z,20.70
2018-09-19T18:48:27.888Z,20.70
2018-09-19T18:50:56.648Z,20.70
2018-09-19T18:53:25.130Z,20.70
2018-09-19T18:55:53.650Z,20.70
2018-09-19T18:58:22.204Z,20.70
2018-09-19T19:00:50.741Z,20.70
2018-09-19T19:03:19.204Z,20.70
2018-09-19T19:05:47.698Z,20.70
2018-09-19T19:08:16.212Z,20.70
2018-09-19T19:10:44.844Z,20.70
2018-09-19T19:13:13.350Z,20.70
2018-09-19T19:15:41.817Z,20.70
2018-09-19T19:18:10.306Z,20.70
2018-09-19T19:20:38.780Z,20.70
2018-09-19T19:23:07.481Z,20.70
2018-09-19T19:25:35.975Z,20.70
2018-09-19T19:28:04.423Z,20.70
2018-09-19T19:30:33.030Z,20.70
2018-09-19T19:33:01.389Z,20.70
2018-09-19T19:35:29.856Z,20.70
2018-09-19T19:37:58.379Z,20.70
2018-09-19T19:40:27.116Z,20.70
2018-09-19T19:42:55.578Z,20.70
2018-09-19T19:47:52.291Z,20.70
2018-09-19T19:50:20.768Z,20.70
2018-09-19T19:52:49.233Z,20.70
2018-09-19T19:55:17.701Z,20.70
2018-09-19T19:57:46.198Z,20.70
2018-09-19T20:00:14.673Z,20.70
2018-09-19T20:02:43.140Z,20.70
2018-09-19T20:05:11.703Z,20.70
2018-09-19T20:07:40.148Z,20.70
2018-09-19T20:10:08.596Z,20.70
2018-09-19T20:12:37.149Z,20.70
2018-09-19T20:15:05.579Z,20.70
2018-09-19T20:17:34.041Z,20.70
2018-09-19T20:20:02.536Z,20.70
2018-09-19T20:22:30.982Z,20.70
2018-09-19T20:24:59.481Z,20.70
2018-09-19T20:27:28.161Z,20.70
2018-09-19T20:29:56.698Z,20.70
2018-09-19T20:32:25.107Z,20.70
2018-09-19T20:34:53.659Z,20.70
2018-09-19T20:37:22.078Z,20.70
2018-09-19T20:39:50.675Z,20.70
2018-09-19T20:42:19.297Z,20.70
2018-09-19T20:44:48.010Z,20.70
2018-09-19T20:47:16.408Z,20.70
2018-09-19T20:49:44.893Z,20.70
2018-09-19T20:52:13.462Z,20.70
2018-09-19T20:54:41.871Z,20.70
2018-09-19T20:57:10.352Z,20.70
2018-09-19T20:59:38.854Z,20.70
2018-09-19T21:02:07.292Z,20.70
2018-09-19T21:04:36.053Z,20.70
2018-09-19T21:07:04.584Z,20.70
2018-09-19T21:09:33.127Z,20.70
2018-09-19T21:14:29.680Z,20.70
2018-09-19T21:16:58.182Z,20.70
2018-09-19T21:19:26.644Z,20.70
2018-09-19T21:21:55.246Z,20.70
2018-09-19T21:24:23.660Z,20.60
2018-09-19T21:26:52.155Z,20.60
2018-09-19T21:29:20.575Z,20.60
2018-09-19T21:31:49.078Z,20.70
2018-09-19T21:34:17.564Z,20.60
2018-09-19T21:39:14.281Z,20.70
2018-09-19T21:41:42.981Z,20.60
2018-09-19T21:44:11.493Z,20.60
2018-09-19T21:46:40.050Z,20.60
2018-09-19T21:49:08.671Z,20.60
2018-09-19T21:51:37.151Z,20.60
2018-09-19T21:54:05.662Z,20.60
2018-09-19T21:56:34.246Z,20.60
2018-09-19T21:59:02.800Z,20.60
2018-09-19T22:01:36.593Z,20.60
2018-09-19T22:04:05.025Z,20.60
2018-09-19T22:06:33.558Z,20.60
2018-09-19T22:09:01.973Z,20.60
2018-09-19T22:11:30.482Z,20.60
2018-09-19T22:13:59.129Z,20.60
2018-09-19T22:16:27.615Z,20.60
2018-09-19T22:18:56.128Z,20.70
2018-09-19T22:21:24.583Z,20.60
2018-09-19T22:26:21.352Z,20.60
2018-09-19T22:28:49.859Z,20.60
2018-09-19T22:31:18.311Z,20.60
2018-09-19T22:33:46.794Z,20.60
2018-09-19T22:36:15.285Z,20.60
2018-09-19T22:38:43.984Z,20.60
2018-09-19T22:41:13.285Z,20.60
2018-09-19T22:43:41.780Z,20.60
2018-09-19T22:46:10.236Z,20.60
2018-09-19T22:48:38.832Z,20.60
2018-09-19T22:51:07.364Z,20.60
2018-09-19T22:53:35.905Z,20.60
2018-09-19T22:58:32.619Z,20.60
2018-09-19T23:01:01.371Z,20.60
2018-09-19T23:03:29.789Z,20.60
2018-09-19T23:05:58.256Z,20.60
2018-09-19T23:10:55.016Z,20.60
2018-09-19T23:13:25.363Z,20.60
2018-09-19T23:15:53.865Z,20.60
2018-09-19T23:18:22.289Z,20.60
2018-09-19T23:20:50.831Z,20.60
2018-09-19T23:23:19.348Z,20.60
2018-09-19T23:25:47.757Z,20.60
2018-09-19T23:28:16.216Z,20.60
2018-09-19T23:30:44.799Z,20.60
2018-09-19T23:33:13.255Z,20.60
2018-09-19T23:35:41.680Z,20.60
2018-09-19T23:38:10.130Z,20.60
2018-09-19T23:40:38.637Z,20.60
2018-09-19T23:43:07.101Z,20.60
2018-09-19T23:45:35.600Z,20.60
2018-09-19T23:48:04.113Z,20.60
2018-09-19T23:50:32.776Z,20.60
2018-09-19T23:53:01.232Z,20.60
2018-09-19T23:55:29.732Z,20.60
2018-09-19T23:57:58.224Z,20.60
